sensor_id;sensor_type;location;lat;lon;timestamp;P1;durP1;ratioP1;P2;durP2;ratioP2
5787;SDS011;2920;48.158;12.254;2023-04-30T00:00:43;6.10;;;4.00;;
5787;SDS011;2920;48.158;12.254;2023-04-30T00:03:08;6.05;;;3.90;;
5787;SDS011;2920;48.158;12.254;2023-04-30T00:05:33;5.45;;;3.40;;
5787;SDS011;2920;48.158;12.254;2023-04-30T00:07:58;5.30;;;3.45;;
5787;SDS011;2920;48.158;12.254;2023-04-30T00:10:24;5.10;;;2.97;;
5787;SDS011;2920;48.158;12.254;2023-04-30T00:12:49;4.85;;;3.10;;
5787;SDS011;2920;48.158;12.254;2023-04-30T00:15:14;3.83;;;2.58;;
5787;SDS011;2920;48.158;12.254;2023-04-30T00:17:40;3.95;;;2.30;;
5787;SDS011;2920;48.158;12.254;2023-04-30T00:20:05;3.75;;;2.70;;
5787;SDS011;2920;48.158;12.254;2023-04-30T00:22:31;4.05;;;2.55;;
5787;SDS011;2920;48.158;12.254;2023-04-30T00:24:57;6.47;;;3.63;;
5787;SDS011;2920;48.158;12.254;2023-04-30T00:27:22;3.58;;;2.55;;
5787;SDS011;2920;48.158;12.254;2023-04-30T00:29:48;6.22;;;3.45;;
5787;SDS011;2920;48.158;12.254;2023-04-30T00:32:13;4.20;;;2.63;;
5787;SDS011;2920;48.158;12.254;2023-04-30T00:34:39;4.32;;;3.05;;
5787;SDS011;2920;48.158;12.254;2023-04-30T00:37:04;4.65;;;2.55;;
5787;SDS011;2920;48.158;12.254;2023-04-30T00:39:30;2.97;;;2.08;;
5787;SDS011;2920;48.158;12.254;2023-04-30T00:41:55;2.92;;;2.00;;
5787;SDS011;2920;48.158;12.254;2023-04-30T00:44:20;3.67;;;2.65;;
5787;SDS011;2920;48.158;12.254;2023-04-30T00:46:45;2.97;;;2.15;;
5787;SDS011;2920;48.158;12.254;2023-04-30T00:49:11;4.25;;;3.05;;
5787;SDS011;2920;48.158;12.254;2023-04-30T00:51:36;3.50;;;2.35;;
5787;SDS011;2920;48.158;12.254;2023-04-30T00:54:04;4.32;;;2.70;;
5787;SDS011;2920;48.158;12.254;2023-04-30T00:56:31;4.10;;;2.80;;
5787;SDS011;2920;48.158;12.254;2023-04-30T00:58:57;3.95;;;2.45;;
5787;SDS011;2920;48.158;12.254;2023-04-30T01:01:25;5.60;;;2.85;;
5787;SDS011;2920;48.158;12.254;2023-04-30T01:03:53;4.72;;;2.40;;
5787;SDS011;2920;48.158;12.254;2023-04-30T01:06:18;3.40;;;2.50;;
5787;SDS011;2920;48.158;12.254;2023-04-30T01:08:43;3.78;;;2.70;;
5787;SDS011;2920;48.158;12.254;2023-04-30T01:11:35;4.13;;;2.50;;
5787;SDS011;2920;48.158;12.254;2023-04-30T01:16:56;3.20;;;1.95;;
5787;SDS011;2920;48.158;12.254;2023-04-30T01:19:44;4.15;;;2.47;;
5787;SDS011;2920;48.158;12.254;2023-04-30T01:22:25;4.60;;;2.70;;
5787;SDS011;2920;48.158;12.254;2023-04-30T01:29:56;4.70;;;2.35;;
5787;SDS011;2920;48.158;12.254;2023-04-30T01:32:22;3.25;;;2.08;;
5787;SDS011;2920;48.158;12.254;2023-04-30T01:34:47;4.80;;;3.05;;
5787;SDS011;2920;48.158;12.254;2023-04-30T01:39:52;4.35;;;2.95;;
5787;SDS011;2920;48.158;12.254;2023-04-30T01:42:42;3.85;;;2.75;;
5787;SDS011;2920;48.158;12.254;2023-04-30T01:47:51;5.10;;;2.92;;
5787;SDS011;2920;48.158;12.254;2023-04-30T01:52:59;5.03;;;2.58;;
5787;SDS011;2920;48.158;12.254;2023-04-30T01:57:56;6.85;;;3.00;;
5787;SDS011;2920;48.158;12.254;2023-04-30T02:00:23;5.97;;;3.72;;
5787;SDS011;2920;48.158;12.254;2023-04-30T02:02:50;5.55;;;3.47;;
5787;SDS011;2920;48.158;12.254;2023-04-30T02:05:15;7.53;;;3.67;;
5787;SDS011;2920;48.158;12.254;2023-04-30T02:07:41;4.28;;;2.97;;
5787;SDS011;2920;48.158;12.254;2023-04-30T02:10:08;5.78;;;3.55;;
5787;SDS011;2920;48.158;12.254;2023-04-30T02:12:34;6.70;;;3.50;;
5787;SDS011;2920;48.158;12.254;2023-04-30T02:14:59;5.38;;;3.33;;
5787;SDS011;2920;48.158;12.254;2023-04-30T02:17:25;5.53;;;3.83;;
5787;SDS011;2920;48.158;12.254;2023-04-30T02:19:50;6.88;;;4.38;;
5787;SDS011;2920;48.158;12.254;2023-04-30T02:22:15;7.75;;;4.60;;
5787;SDS011;2920;48.158;12.254;2023-04-30T02:24:41;8.95;;;4.72;;
5787;SDS011;2920;48.158;12.254;2023-04-30T02:27:06;6.25;;;3.42;;
5787;SDS011;2920;48.158;12.254;2023-04-30T02:29:31;6.47;;;3.92;;
5787;SDS011;2920;48.158;12.254;2023-04-30T02:32:00;7.45;;;3.88;;
5787;SDS011;2920;48.158;12.254;2023-04-30T02:34:25;7.90;;;4.53;;
5787;SDS011;2920;48.158;12.254;2023-04-30T02:36:51;7.30;;;4.72;;
5787;SDS011;2920;48.158;12.254;2023-04-30T02:39:16;9.27;;;4.80;;
5787;SDS011;2920;48.158;12.254;2023-04-30T02:41:41;7.43;;;4.78;;
5787;SDS011;2920;48.158;12.254;2023-04-30T02:44:07;6.00;;;4.40;;
5787;SDS011;2920;48.158;12.254;2023-04-30T02:46:32;7.63;;;4.68;;
5787;SDS011;2920;48.158;12.254;2023-04-30T02:48:57;6.80;;;4.25;;
5787;SDS011;2920;48.158;12.254;2023-04-30T02:51:23;6.03;;;3.95;;
5787;SDS011;2920;48.158;12.254;2023-04-30T02:53:48;7.10;;;4.68;;
5787;SDS011;2920;48.158;12.254;2023-04-30T02:56:13;6.72;;;4.82;;
5787;SDS011;2920;48.158;12.254;2023-04-30T02:58:39;7.47;;;4.80;;
5787;SDS011;2920;48.158;12.254;2023-04-30T03:01:04;12.80;;;4.88;;
5787;SDS011;2920;48.158;12.254;2023-04-30T03:03:30;7.07;;;4.45;;
5787;SDS011;2920;48.158;12.254;2023-04-30T03:05:55;7.22;;;4.63;;
5787;SDS011;2920;48.158;12.254;2023-04-30T03:08:23;8.55;;;4.95;;
5787;SDS011;2920;48.158;12.254;2023-04-30T03:10:49;7.38;;;4.93;;
5787;SDS011;2920;48.158;12.254;2023-04-30T03:13:14;9.82;;;5.10;;
5787;SDS011;2920;48.158;12.254;2023-04-30T03:15:40;7.38;;;4.55;;
5787;SDS011;2920;48.158;12.254;2023-04-30T03:18:05;7.50;;;4.75;;
5787;SDS011;2920;48.158;12.254;2023-04-30T03:20:30;7.28;;;5.00;;
5787;SDS011;2920;48.158;12.254;2023-04-30T03:22:56;6.07;;;4.13;;
5787;SDS011;2920;48.158;12.254;2023-04-30T03:25:21;5.03;;;3.85;;
5787;SDS011;2920;48.158;12.254;2023-04-30T03:27:47;8.60;;;5.15;;
5787;SDS011;2920;48.158;12.254;2023-04-30T03:30:12;6.78;;;4.85;;
5787;SDS011;2920;48.158;12.254;2023-04-30T03:32:37;8.52;;;5.05;;
5787;SDS011;2920;48.158;12.254;2023-04-30T03:35:03;8.88;;;5.07;;
5787;SDS011;2920;48.158;12.254;2023-04-30T03:37:29;9.82;;;6.10;;
5787;SDS011;2920;48.158;12.254;2023-04-30T03:39:54;11.27;;;5.13;;
5787;SDS011;2920;48.158;12.254;2023-04-30T03:42:19;9.88;;;5.80;;
5787;SDS011;2920;48.158;12.254;2023-04-30T03:44:45;15.25;;;5.82;;
5787;SDS011;2920;48.158;12.254;2023-04-30T03:47:10;8.98;;;5.63;;
5787;SDS011;2920;48.158;12.254;2023-04-30T03:49:35;7.90;;;5.13;;
5787;SDS011;2920;48.158;12.254;2023-04-30T03:52:01;7.20;;;5.30;;
5787;SDS011;2920;48.158;12.254;2023-04-30T03:54:27;9.15;;;5.05;;
5787;SDS011;2920;48.158;12.254;2023-04-30T03:56:52;9.35;;;4.78;;
5787;SDS011;2920;48.158;12.254;2023-04-30T03:59:18;6.32;;;4.60;;
5787;SDS011;2920;48.158;12.254;2023-04-30T04:01:43;5.57;;;3.90;;
5787;SDS011;2920;48.158;12.254;2023-04-30T04:04:08;6.68;;;4.07;;
5787;SDS011;2920;48.158;12.254;2023-04-30T04:06:34;6.85;;;3.88;;
5787;SDS011;2920;48.158;12.254;2023-04-30T04:08:59;8.30;;;5.13;;
5787;SDS011;2920;48.158;12.254;2023-04-30T04:11:24;7.93;;;4.55;;
5787;SDS011;2920;48.158;12.254;2023-04-30T04:13:50;5.03;;;3.55;;
5787;SDS011;2920;48.158;12.254;2023-04-30T04:16:15;7.32;;;4.45;;
5787;SDS011;2920;48.158;12.254;2023-04-30T04:18:40;7.25;;;4.82;;
5787;SDS011;2920;48.158;12.254;2023-04-30T04:21:06;6.97;;;4.43;;
5787;SDS011;2920;48.158;12.254;2023-04-30T04:23:31;7.88;;;4.95;;
5787;SDS011;2920;48.158;12.254;2023-04-30T04:25:56;8.48;;;5.60;;
5787;SDS011;2920;48.158;12.254;2023-04-30T04:28:22;8.18;;;4.93;;
5787;SDS011;2920;48.158;12.254;2023-04-30T04:30:47;7.90;;;5.00;;
5787;SDS011;2920;48.158;12.254;2023-04-30T04:33:13;8.30;;;5.45;;
5787;SDS011;2920;48.158;12.254;2023-04-30T04:35:38;9.40;;;4.93;;
5787;SDS011;2920;48.158;12.254;2023-04-30T04:38:04;8.93;;;5.75;;
5787;SDS011;2920;48.158;12.254;2023-04-30T04:40:29;8.55;;;5.22;;
5787;SDS011;2920;48.158;12.254;2023-04-30T04:42:55;7.57;;;5.30;;
5787;SDS011;2920;48.158;12.254;2023-04-30T04:45:20;8.57;;;5.25;;
5787;SDS011;2920;48.158;12.254;2023-04-30T04:47:46;8.27;;;5.13;;
5787;SDS011;2920;48.158;12.254;2023-04-30T04:50:12;7.47;;;4.90;;
5787;SDS011;2920;48.158;12.254;2023-04-30T04:52:38;6.50;;;4.38;;
5787;SDS011;2920;48.158;12.254;2023-04-30T04:55:03;7.70;;;4.80;;
5787;SDS011;2920;48.158;12.254;2023-04-30T04:57:29;6.60;;;5.10;;
5787;SDS011;2920;48.158;12.254;2023-04-30T04:59:55;10.20;;;5.95;;
5787;SDS011;2920;48.158;12.254;2023-04-30T05:02:20;7.70;;;5.55;;
5787;SDS011;2920;48.158;12.254;2023-04-30T05:04:47;8.77;;;5.53;;
5787;SDS011;2920;48.158;12.254;2023-04-30T05:07:14;9.40;;;4.68;;
5787;SDS011;2920;48.158;12.254;2023-04-30T05:09:40;6.47;;;4.72;;
5787;SDS011;2920;48.158;12.254;2023-04-30T05:12:06;8.32;;;5.35;;
5787;SDS011;2920;48.158;12.254;2023-04-30T05:14:31;8.02;;;5.28;;
5787;SDS011;2920;48.158;12.254;2023-04-30T05:16:56;5.78;;;4.45;;
5787;SDS011;2920;48.158;12.254;2023-04-30T05:19:21;8.20;;;4.68;;
5787;SDS011;2920;48.158;12.254;2023-04-30T05:21:47;6.40;;;4.32;;
5787;SDS011;2920;48.158;12.254;2023-04-30T05:24:12;8.45;;;5.72;;
5787;SDS011;2920;48.158;12.254;2023-04-30T05:26:37;6.35;;;4.60;;
5787;SDS011;2920;48.158;12.254;2023-04-30T05:29:03;7.60;;;5.18;;
5787;SDS011;2920;48.158;12.254;2023-04-30T05:31:28;5.60;;;4.13;;
5787;SDS011;2920;48.158;12.254;2023-04-30T05:33:53;7.57;;;3.75;;
5787;SDS011;2920;48.158;12.254;2023-04-30T05:36:18;5.82;;;4.28;;
5787;SDS011;2920;48.158;12.254;2023-04-30T05:38:44;7.45;;;4.47;;
5787;SDS011;2920;48.158;12.254;2023-04-30T05:41:10;6.47;;;4.35;;
5787;SDS011;2920;48.158;12.254;2023-04-30T05:43:36;5.10;;;4.13;;
5787;SDS011;2920;48.158;12.254;2023-04-30T05:46:01;5.78;;;4.30;;
5787;SDS011;2920;48.158;12.254;2023-04-30T05:48:27;5.55;;;3.72;;
5787;SDS011;2920;48.158;12.254;2023-04-30T05:50:53;6.57;;;5.20;;
5787;SDS011;2920;48.158;12.254;2023-04-30T05:53:18;7.85;;;5.03;;
5787;SDS011;2920;48.158;12.254;2023-04-30T05:55:43;8.43;;;5.22;;
5787;SDS011;2920;48.158;12.254;2023-04-30T05:58:09;6.00;;;4.22;;
5787;SDS011;2920;48.158;12.254;2023-04-30T06:00:34;6.93;;;3.78;;
5787;SDS011;2920;48.158;12.254;2023-04-30T06:03:00;9.05;;;4.65;;
5787;SDS011;2920;48.158;12.254;2023-04-30T06:05:25;7.90;;;4.60;;
5787;SDS011;2920;48.158;12.254;2023-04-30T06:07:51;6.72;;;4.05;;
5787;SDS011;2920;48.158;12.254;2023-04-30T06:10:16;6.13;;;4.38;;
5787;SDS011;2920;48.158;12.254;2023-04-30T06:12:42;6.85;;;4.90;;
5787;SDS011;2920;48.158;12.254;2023-04-30T06:15:07;6.57;;;4.10;;
5787;SDS011;2920;48.158;12.254;2023-04-30T06:17:32;5.63;;;4.22;;
5787;SDS011;2920;48.158;12.254;2023-04-30T06:19:58;6.70;;;4.55;;
5787;SDS011;2920;48.158;12.254;2023-04-30T06:22:26;7.55;;;4.00;;
5787;SDS011;2920;48.158;12.254;2023-04-30T06:24:51;6.32;;;4.05;;
5787;SDS011;2920;48.158;12.254;2023-04-30T06:27:16;5.18;;;3.97;;
5787;SDS011;2920;48.158;12.254;2023-04-30T06:29:42;6.07;;;4.15;;
5787;SDS011;2920;48.158;12.254;2023-04-30T06:32:07;5.72;;;3.85;;
5787;SDS011;2920;48.158;12.254;2023-04-30T06:34:32;6.13;;;4.78;;
5787;SDS011;2920;48.158;12.254;2023-04-30T06:36:58;6.72;;;4.25;;
5787;SDS011;2920;48.158;12.254;2023-04-30T06:39:23;7.22;;;4.53;;
5787;SDS011;2920;48.158;12.254;2023-04-30T06:41:48;7.07;;;4.40;;
5787;SDS011;2920;48.158;12.254;2023-04-30T06:44:14;7.22;;;4.60;;
5787;SDS011;2920;48.158;12.254;2023-04-30T06:46:41;5.53;;;4.50;;
5787;SDS011;2920;48.158;12.254;2023-04-30T06:49:06;6.13;;;4.28;;
5787;SDS011;2920;48.158;12.254;2023-04-30T06:51:31;6.30;;;4.60;;
5787;SDS011;2920;48.158;12.254;2023-04-30T06:53:57;5.75;;;3.90;;
5787;SDS011;2920;48.158;12.254;2023-04-30T06:56:22;5.88;;;4.13;;
5787;SDS011;2920;48.158;12.254;2023-04-30T06:58:48;4.82;;;3.53;;
5787;SDS011;2920;48.158;12.254;2023-04-30T07:01:14;6.93;;;3.90;;
5787;SDS011;2920;48.158;12.254;2023-04-30T07:03:39;6.68;;;4.15;;
5787;SDS011;2920;48.158;12.254;2023-04-30T07:06:04;5.93;;;4.25;;
5787;SDS011;2920;48.158;12.254;2023-04-30T07:08:30;6.55;;;3.85;;
5787;SDS011;2920;48.158;12.254;2023-04-30T07:10:55;5.25;;;3.65;;
5787;SDS011;2920;48.158;12.254;2023-04-30T07:13:21;5.82;;;4.03;;
5787;SDS011;2920;48.158;12.254;2023-04-30T07:15:46;6.40;;;3.75;;
5787;SDS011;2920;48.158;12.254;2023-04-30T07:18:11;5.70;;;3.88;;
5787;SDS011;2920;48.158;12.254;2023-04-30T07:20:37;5.47;;;4.63;;
5787;SDS011;2920;48.158;12.254;2023-04-30T07:23:02;8.45;;;4.57;;
5787;SDS011;2920;48.158;12.254;2023-04-30T07:25:27;5.68;;;4.15;;
5787;SDS011;2920;48.158;12.254;2023-04-30T07:27:53;7.43;;;4.25;;
5787;SDS011;2920;48.158;12.254;2023-04-30T07:30:19;5.80;;;3.90;;
5787;SDS011;2920;48.158;12.254;2023-04-30T07:32:45;6.05;;;4.47;;
5787;SDS011;2920;48.158;12.254;2023-04-30T07:35:11;6.38;;;3.70;;
5787;SDS011;2920;48.158;12.254;2023-04-30T07:37:37;6.05;;;4.00;;
5787;SDS011;2920;48.158;12.254;2023-04-30T07:40:03;6.05;;;4.50;;
5787;SDS011;2920;48.158;12.254;2023-04-30T07:42:28;4.60;;;3.40;;
5787;SDS011;2920;48.158;12.254;2023-04-30T07:44:54;4.75;;;3.75;;
5787;SDS011;2920;48.158;12.254;2023-04-30T07:47:19;5.05;;;4.15;;
5787;SDS011;2920;48.158;12.254;2023-04-30T07:49:45;5.25;;;3.65;;
5787;SDS011;2920;48.158;12.254;2023-04-30T07:52:11;4.78;;;4.00;;
5787;SDS011;2920;48.158;12.254;2023-04-30T07:54:37;5.18;;;3.88;;
5787;SDS011;2920;48.158;12.254;2023-04-30T07:57:03;7.13;;;4.05;;
5787;SDS011;2920;48.158;12.254;2023-04-30T07:59:29;7.13;;;4.50;;
5787;SDS011;2920;48.158;12.254;2023-04-30T08:01:54;7.40;;;4.13;;
5787;SDS011;2920;48.158;12.254;2023-04-30T08:04:20;7.15;;;4.38;;
5787;SDS011;2920;48.158;12.254;2023-04-30T08:06:45;10.68;;;5.40;;
5787;SDS011;2920;48.158;12.254;2023-04-30T08:09:10;5.07;;;4.05;;
5787;SDS011;2920;48.158;12.254;2023-04-30T08:11:36;9.13;;;5.63;;
5787;SDS011;2920;48.158;12.254;2023-04-30T08:14:01;5.88;;;5.28;;
5787;SDS011;2920;48.158;12.254;2023-04-30T08:16:27;8.52;;;5.95;;
5787;SDS011;2920;48.158;12.254;2023-04-30T08:18:52;7.80;;;6.32;;
5787;SDS011;2920;48.158;12.254;2023-04-30T08:21:18;7.68;;;5.82;;
5787;SDS011;2920;48.158;12.254;2023-04-30T08:23:43;8.02;;;5.68;;
5787;SDS011;2920;48.158;12.254;2023-04-30T08:26:08;9.57;;;6.07;;
5787;SDS011;2920;48.158;12.254;2023-04-30T08:28:34;6.90;;;5.65;;
5787;SDS011;2920;48.158;12.254;2023-04-30T08:31:00;6.68;;;5.15;;
5787;SDS011;2920;48.158;12.254;2023-04-30T08:33:25;7.68;;;6.28;;
5787;SDS011;2920;48.158;12.254;2023-04-30T08:35:50;8.60;;;5.93;;
5787;SDS011;2920;48.158;12.254;2023-04-30T08:38:16;8.00;;;6.35;;
5787;SDS011;2920;48.158;12.254;2023-04-30T08:40:42;7.72;;;5.88;;
5787;SDS011;2920;48.158;12.254;2023-04-30T08:43:09;6.15;;;5.45;;
5787;SDS011;2920;48.158;12.254;2023-04-30T08:45:35;7.32;;;5.20;;
5787;SDS011;2920;48.158;12.254;2023-04-30T08:48:01;6.00;;;4.60;;
5787;SDS011;2920;48.158;12.254;2023-04-30T08:50:31;7.10;;;5.43;;
5787;SDS011;2920;48.158;12.254;2023-04-30T08:52:57;6.47;;;5.32;;
5787;SDS011;2920;48.158;12.254;2023-04-30T08:55:23;5.57;;;4.97;;
5787;SDS011;2920;48.158;12.254;2023-04-30T08:57:50;6.10;;;5.18;;
5787;SDS011;2920;48.158;12.254;2023-04-30T09:00:15;6.93;;;4.95;;
5787;SDS011;2920;48.158;12.254;2023-04-30T09:02:41;5.95;;;4.55;;
5787;SDS011;2920;48.158;12.254;2023-04-30T09:05:10;5.53;;;3.88;;
5787;SDS011;2920;48.158;12.254;2023-04-30T09:07:37;6.88;;;4.93;;
5787;SDS011;2920;48.158;12.254;2023-04-30T09:10:13;6.10;;;4.07;;
5787;SDS011;2920;48.158;12.254;2023-04-30T09:12:39;4.50;;;3.85;;
5787;SDS011;2920;48.158;12.254;2023-04-30T09:15:07;5.95;;;4.20;;
5787;SDS011;2920;48.158;12.254;2023-04-30T09:17:33;6.30;;;4.03;;
5787;SDS011;2920;48.158;12.254;2023-04-30T09:20:08;7.13;;;4.50;;
5787;SDS011;2920;48.158;12.254;2023-04-30T09:22:35;6.28;;;4.68;;
5787;SDS011;2920;48.158;12.254;2023-04-30T09:25:02;4.88;;;3.95;;
5787;SDS011;2920;48.158;12.254;2023-04-30T09:27:27;5.45;;;3.97;;
5787;SDS011;2920;48.158;12.254;2023-04-30T09:29:53;5.80;;;4.38;;
5787;SDS011;2920;48.158;12.254;2023-04-30T09:32:18;5.22;;;4.13;;
5787;SDS011;2920;48.158;12.254;2023-04-30T09:34:43;6.72;;;4.20;;
5787;SDS011;2920;48.158;12.254;2023-04-30T09:37:09;6.40;;;4.47;;
5787;SDS011;2920;48.158;12.254;2023-04-30T09:39:45;7.45;;;3.70;;
5787;SDS011;2920;48.158;12.254;2023-04-30T09:42:20;5.43;;;3.55;;
5787;SDS011;2920;48.158;12.254;2023-04-30T09:44:45;5.43;;;3.88;;
5787;SDS011;2920;48.158;12.254;2023-04-30T09:47:11;5.15;;;3.53;;
5787;SDS011;2920;48.158;12.254;2023-04-30T09:49:39;5.07;;;3.42;;
5787;SDS011;2920;48.158;12.254;2023-04-30T09:52:06;4.72;;;4.07;;
5787;SDS011;2920;48.158;12.254;2023-04-30T09:54:32;5.53;;;3.70;;
5787;SDS011;2920;48.158;12.254;2023-04-30T09:56:58;4.47;;;4.07;;
5787;SDS011;2920;48.158;12.254;2023-04-30T09:59:29;6.07;;;3.55;;
5787;SDS011;2920;48.158;12.254;2023-04-30T10:01:59;4.43;;;3.70;;
5787;SDS011;2920;48.158;12.254;2023-04-30T10:04:28;4.20;;;3.72;;
5787;SDS011;2920;48.158;12.254;2023-04-30T10:06:56;6.00;;;4.28;;
5787;SDS011;2920;48.158;12.254;2023-04-30T10:09:24;5.03;;;3.38;;
5787;SDS011;2920;48.158;12.254;2023-04-30T10:11:51;5.68;;;4.00;;
5787;SDS011;2920;48.158;12.254;2023-04-30T10:14:16;4.20;;;3.72;;
5787;SDS011;2920;48.158;12.254;2023-04-30T10:17:02;4.28;;;3.50;;
5787;SDS011;2920;48.158;12.254;2023-04-30T10:19:33;5.40;;;3.92;;
5787;SDS011;2920;48.158;12.254;2023-04-30T10:22:01;5.03;;;3.35;;
5787;SDS011;2920;48.158;12.254;2023-04-30T10:24:26;4.38;;;3.45;;
5787;SDS011;2920;48.158;12.254;2023-04-30T10:26:52;4.80;;;3.85;;
5787;SDS011;2920;48.158;12.254;2023-04-30T10:29:18;4.72;;;3.88;;
5787;SDS011;2920;48.158;12.254;2023-04-30T10:31:44;4.03;;;3.10;;
5787;SDS011;2920;48.158;12.254;2023-04-30T10:36:43;4.20;;;2.70;;
5787;SDS011;2920;48.158;12.254;2023-04-30T10:39:10;3.47;;;2.65;;
5787;SDS011;2920;48.158;12.254;2023-04-30T10:41:36;6.07;;;3.42;;
5787;SDS011;2920;48.158;12.254;2023-04-30T10:44:02;4.45;;;3.17;;
5787;SDS011;2920;48.158;12.254;2023-04-30T10:46:29;4.35;;;3.20;;
5787;SDS011;2920;48.158;12.254;2023-04-30T10:48:55;4.53;;;3.38;;
5787;SDS011;2920;48.158;12.254;2023-04-30T10:51:20;5.18;;;3.28;;
5787;SDS011;2920;48.158;12.254;2023-04-30T10:53:48;4.20;;;2.75;;
5787;SDS011;2920;48.158;12.254;2023-04-30T10:56:15;4.60;;;3.25;;
5787;SDS011;2920;48.158;12.254;2023-04-30T10:58:57;5.50;;;3.60;;
5787;SDS011;2920;48.158;12.254;2023-04-30T11:01:23;4.38;;;3.08;;
5787;SDS011;2920;48.158;12.254;2023-04-30T11:04:07;4.45;;;3.20;;
5787;SDS011;2920;48.158;12.254;2023-04-30T11:12:10;4.63;;;3.67;;
5787;SDS011;2920;48.158;12.254;2023-04-30T11:14:40;3.72;;;3.25;;
5787;SDS011;2920;48.158;12.254;2023-04-30T11:17:08;5.80;;;2.70;;
5787;SDS011;2920;48.158;12.254;2023-04-30T11:19:35;3.95;;;2.90;;
5787;SDS011;2920;48.158;12.254;2023-04-30T11:27:23;3.20;;;2.80;;
5787;SDS011;2920;48.158;12.254;2023-04-30T11:29:52;4.63;;;2.97;;
5787;SDS011;2920;48.158;12.254;2023-04-30T11:32:19;5.22;;;3.40;;
5787;SDS011;2920;48.158;12.254;2023-04-30T11:34:45;5.90;;;3.17;;
5787;SDS011;2920;48.158;12.254;2023-04-30T11:37:11;3.20;;;2.85;;
5787;SDS011;2920;48.158;12.254;2023-04-30T11:39:38;4.38;;;2.88;;
5787;SDS011;2920;48.158;12.254;2023-04-30T11:42:05;2.80;;;2.50;;
5787;SDS011;2920;48.158;12.254;2023-04-30T11:44:31;5.32;;;2.90;;
5787;SDS011;2920;48.158;12.254;2023-04-30T11:46:57;3.53;;;2.25;;
5787;SDS011;2920;48.158;12.254;2023-04-30T11:49:22;4.95;;;2.60;;
5787;SDS011;2920;48.158;12.254;2023-04-30T11:51:48;4.15;;;2.40;;
5787;SDS011;2920;48.158;12.254;2023-04-30T11:54:14;3.15;;;2.38;;
5787;SDS011;2920;48.158;12.254;2023-04-30T11:56:44;3.35;;;2.83;;
5787;SDS011;2920;48.158;12.254;2023-04-30T11:59:12;3.35;;;2.63;;
5787;SDS011;2920;48.158;12.254;2023-04-30T12:01:37;3.83;;;2.83;;
5787;SDS011;2920;48.158;12.254;2023-04-30T12:04:03;3.63;;;2.70;;
5787;SDS011;2920;48.158;12.254;2023-04-30T12:06:29;3.22;;;2.30;;
5787;SDS011;2920;48.158;12.254;2023-04-30T12:08:55;3.25;;;2.70;;
5787;SDS011;2920;48.158;12.254;2023-04-30T12:11:25;4.05;;;2.70;;
5787;SDS011;2920;48.158;12.254;2023-04-30T12:14:09;3.58;;;2.53;;
5787;SDS011;2920;48.158;12.254;2023-04-30T12:16:46;3.00;;;2.67;;
5787;SDS011;2920;48.158;12.254;2023-04-30T12:19:19;4.28;;;3.20;;
5787;SDS011;2920;48.158;12.254;2023-04-30T12:21:45;3.58;;;2.97;;
5787;SDS011;2920;48.158;12.254;2023-04-30T12:24:16;4.03;;;3.03;;
5787;SDS011;2920;48.158;12.254;2023-04-30T12:26:42;3.88;;;2.67;;
5787;SDS011;2920;48.158;12.254;2023-04-30T12:29:14;4.03;;;3.20;;
5787;SDS011;2920;48.158;12.254;2023-04-30T12:31:41;3.65;;;2.40;;
5787;SDS011;2920;48.158;12.254;2023-04-30T12:34:07;3.35;;;2.50;;
5787;SDS011;2920;48.158;12.254;2023-04-30T12:36:34;3.63;;;2.58;;
5787;SDS011;2920;48.158;12.254;2023-04-30T12:39:11;5.30;;;2.35;;
5787;SDS011;2920;48.158;12.254;2023-04-30T12:44:15;4.53;;;2.47;;
5787;SDS011;2920;48.158;12.254;2023-04-30T12:46:41;3.03;;;2.40;;
5787;SDS011;2920;48.158;12.254;2023-04-30T12:49:06;3.65;;;2.45;;
5787;SDS011;2920;48.158;12.254;2023-04-30T12:51:34;3.05;;;2.60;;
5787;SDS011;2920;48.158;12.254;2023-04-30T12:53:59;4.13;;;2.40;;
5787;SDS011;2920;48.158;12.254;2023-04-30T12:56:25;17.30;;;3.20;;
5787;SDS011;2920;48.158;12.254;2023-04-30T12:58:50;4.95;;;2.72;;
5787;SDS011;2920;48.158;12.254;2023-04-30T13:01:17;3.22;;;2.72;;
5787;SDS011;2920;48.158;12.254;2023-04-30T13:03:46;5.28;;;2.55;;
5787;SDS011;2920;48.158;12.254;2023-04-30T13:06:12;2.80;;;2.22;;
5787;SDS011;2920;48.158;12.254;2023-04-30T13:08:37;2.78;;;2.33;;
5787;SDS011;2920;48.158;12.254;2023-04-30T13:11:03;2.90;;;2.40;;
5787;SDS011;2920;48.158;12.254;2023-04-30T13:13:28;4.38;;;2.60;;
5787;SDS011;2920;48.158;12.254;2023-04-30T13:15:53;4.13;;;2.25;;
5787;SDS011;2920;48.158;12.254;2023-04-30T13:18:19;3.67;;;2.10;;
5787;SDS011;2920;48.158;12.254;2023-04-30T13:20:45;4.22;;;2.35;;
5787;SDS011;2920;48.158;12.254;2023-04-30T13:23:10;3.08;;;2.50;;
5787;SDS011;2920;48.158;12.254;2023-04-30T13:25:36;4.35;;;2.58;;
5787;SDS011;2920;48.158;12.254;2023-04-30T13:28:02;3.65;;;2.60;;
5787;SDS011;2920;48.158;12.254;2023-04-30T13:30:27;3.45;;;2.85;;
5787;SDS011;2920;48.158;12.254;2023-04-30T13:32:53;3.47;;;2.90;;
5787;SDS011;2920;48.158;12.254;2023-04-30T13:35:19;5.68;;;2.78;;
5787;SDS011;2920;48.158;12.254;2023-04-30T13:37:44;4.50;;;2.78;;
5787;SDS011;2920;48.158;12.254;2023-04-30T13:40:11;2.78;;;2.45;;
5787;SDS011;2920;48.158;12.254;2023-04-30T13:42:37;5.93;;;2.10;;
5787;SDS011;2920;48.158;12.254;2023-04-30T13:45:04;3.67;;;2.47;;
5787;SDS011;2920;48.158;12.254;2023-04-30T13:47:30;3.25;;;2.50;;
5787;SDS011;2920;48.158;12.254;2023-04-30T13:49:55;2.78;;;2.50;;
5787;SDS011;2920;48.158;12.254;2023-04-30T13:52:21;2.60;;;2.30;;
5787;SDS011;2920;48.158;12.254;2023-04-30T13:54:46;2.85;;;2.30;;
5787;SDS011;2920;48.158;12.254;2023-04-30T13:57:12;3.70;;;2.80;;
5787;SDS011;2920;48.158;12.254;2023-04-30T13:59:37;4.13;;;2.90;;
5787;SDS011;2920;48.158;12.254;2023-04-30T14:02:02;3.90;;;3.00;;
5787;SDS011;2920;48.158;12.254;2023-04-30T14:04:28;4.18;;;2.90;;
5787;SDS011;2920;48.158;12.254;2023-04-30T14:06:55;5.18;;;2.88;;
5787;SDS011;2920;48.158;12.254;2023-04-30T14:09:20;5.40;;;3.13;;
5787;SDS011;2920;48.158;12.254;2023-04-30T14:11:46;5.60;;;3.28;;
5787;SDS011;2920;48.158;12.254;2023-04-30T14:14:11;5.53;;;3.10;;
5787;SDS011;2920;48.158;12.254;2023-04-30T14:16:37;3.58;;;2.90;;
5787;SDS011;2920;48.158;12.254;2023-04-30T14:19:02;5.20;;;3.10;;
5787;SDS011;2920;48.158;12.254;2023-04-30T14:21:27;3.90;;;2.83;;
5787;SDS011;2920;48.158;12.254;2023-04-30T14:23:53;4.57;;;3.50;;
5787;SDS011;2920;48.158;12.254;2023-04-30T14:26:19;4.32;;;3.45;;
5787;SDS011;2920;48.158;12.254;2023-04-30T14:28:45;4.03;;;3.55;;
5787;SDS011;2920;48.158;12.254;2023-04-30T14:31:11;5.47;;;3.63;;
5787;SDS011;2920;48.158;12.254;2023-04-30T14:33:36;3.38;;;2.95;;
5787;SDS011;2920;48.158;12.254;2023-04-30T14:36:02;6.00;;;2.90;;
5787;SDS011;2920;48.158;12.254;2023-04-30T14:38:27;4.22;;;3.20;;
5787;SDS011;2920;48.158;12.254;2023-04-30T14:40:52;4.00;;;3.30;;
5787;SDS011;2920;48.158;12.254;2023-04-30T14:43:18;4.00;;;2.75;;
5787;SDS011;2920;48.158;12.254;2023-04-30T14:45:44;3.00;;;2.65;;
5787;SDS011;2920;48.158;12.254;2023-04-30T14:48:10;3.35;;;2.50;;
5787;SDS011;2920;48.158;12.254;2023-04-30T14:50:35;2.97;;;2.53;;
5787;SDS011;2920;48.158;12.254;2023-04-30T14:53:01;3.72;;;3.20;;
5787;SDS011;2920;48.158;12.254;2023-04-30T14:55:27;3.50;;;2.33;;
5787;SDS011;2920;48.158;12.254;2023-04-30T14:57:53;3.33;;;3.03;;
5787;SDS011;2920;48.158;12.254;2023-04-30T15:00:19;3.35;;;2.80;;
5787;SDS011;2920;48.158;12.254;2023-04-30T15:02:45;3.35;;;3.05;;
5787;SDS011;2920;48.158;12.254;2023-04-30T15:05:10;3.80;;;2.65;;
5787;SDS011;2920;48.158;12.254;2023-04-30T15:07:35;4.28;;;2.92;;
5787;SDS011;2920;48.158;12.254;2023-04-30T15:10:01;3.33;;;2.83;;
5787;SDS011;2920;48.158;12.254;2023-04-30T15:12:26;3.47;;;2.88;;
5787;SDS011;2920;48.158;12.254;2023-04-30T15:14:52;3.08;;;2.75;;
5787;SDS011;2920;48.158;12.254;2023-04-30T15:17:17;4.60;;;3.00;;
5787;SDS011;2920;48.158;12.254;2023-04-30T15:19:43;3.67;;;2.75;;
5787;SDS011;2920;48.158;12.254;2023-04-30T15:22:08;3.67;;;2.40;;
5787;SDS011;2920;48.158;12.254;2023-04-30T15:24:34;3.97;;;2.92;;
5787;SDS011;2920;48.158;12.254;2023-04-30T15:27:00;3.17;;;2.85;;
5787;SDS011;2920;48.158;12.254;2023-04-30T15:29:25;3.53;;;2.97;;